sensor_id;sensor_type;location;lat;lon;timestamp;temperature;humidity
44229;DHT22;29904;51.058;5.378;2022-07-23T00:02:10;16.60;99.90
44229;DHT22;29904;51.058;5.378;2022-07-23T00:04:37;16.60;99.90
44229;DHT22;29904;51.058;5.378;2022-07-23T00:07:03;16.50;99.90
44229;DHT22;29904;51.058;5.378;2022-07-23T00:09:29;16.50;99.90
44229;DHT22;29904;51.058;5.378;2022-07-23T00:11:56;16.50;99.90
44229;DHT22;29904;51.058;5.378;2022-07-23T00:14:22;16.50;99.90
44229;DHT22;29904;51.058;5.378;2022-07-23T00:16:48;16.50;99.90
44229;DHT22;29904;51.058;5.378;2022-07-23T00:19:15;16.50;99.90
44229;DHT22;29904;51.058;5.378;2022-07-23T00:21:41;16.50;99.90
44229;DHT22;29904;51.058;5.378;2022-07-23T00:24:07;16.40;99.90
44229;DHT22;29904;51.058;5.378;2022-07-23T00:26:32;16.30;99.90
44229;DHT22;29904;51.058;5.378;2022-07-23T00:28:58;16.30;99.90
44229;DHT22;29904;51.058;5.378;2022-07-23T00:31:24;16.30;99.90
44229;DHT22;29904;51.058;5.378;2022-07-23T00:33:51;16.30;99.90
44229;DHT22;29904;51.058;5.378;2022-07-23T00:36:23;16.30;99.90
44229;DHT22;29904;51.058;5.378;2022-07-23T00:38:49;16.30;99.90
44229;DHT22;29904;51.058;5.378;2022-07-23T00:41:15;16.30;99.90
44229;DHT22;29904;51.058;5.378;2022-07-23T00:43:41;16.30;99.90
44229;DHT22;29904;51.058;5.378;2022-07-23T00:46:07;16.30;99.90
44229;DHT22;29904;51.058;5.378;2022-07-23T00:48:32;16.20;99.90
44229;DHT22;29904;51.058;5.378;2022-07-23T00:50:58;16.20;99.90
44229;DHT22;29904;51.058;5.378;2022-07-23T00:53:24;16.20;99.90
44229;DHT22;29904;51.058;5.378;2022-07-23T00:55:50;16.10;99.90
44229;DHT22;29904;51.058;5.378;2022-07-23T00:58:18;16.10;99.90
44229;DHT22;29904;51.058;5.378;2022-07-23T01:00:44;16.10;99.90
44229;DHT22;29904;51.058;5.378;2022-07-23T01:03:09;16.10;99.90
44229;DHT22;29904;51.058;5.378;2022-07-23T01:05:35;16.10;99.90
44229;DHT22;29904;51.058;5.378;2022-07-23T01:08:01;16.10;99.90
44229;DHT22;29904;51.058;5.378;2022-07-23T01:10:27;16.10;99.90
44229;DHT22;29904;51.058;5.378;2022-07-23T01:13:07;16.10;99.90
44229;DHT22;29904;51.058;5.378;2022-07-23T01:15:34;16.10;99.90
44229;DHT22;29904;51.058;5.378;2022-07-23T01:18:01;16.00;99.90
44229;DHT22;29904;51.058;5.378;2022-07-23T01:20:27;16.00;99.90
44229;DHT22;29904;51.058;5.378;2022-07-23T01:22:55;16.00;99.90
44229;DHT22;29904;51.058;5.378;2022-07-23T01:25:21;16.00;99.90
44229;DHT22;29904;51.058;5.378;2022-07-23T01:27:47;15.90;99.90
44229;DHT22;29904;51.058;5.378;2022-07-23T01:30:15;15.90;99.90
44229;DHT22;29904;51.058;5.378;2022-07-23T01:32:41;15.80;99.90
44229;DHT22;29904;51.058;5.378;2022-07-23T01:35:08;15.70;99.90
44229;DHT22;29904;51.058;5.378;2022-07-23T01:37:36;15.70;99.90
44229;DHT22;29904;51.058;5.378;2022-07-23T01:40:02;15.70;99.90
44229;DHT22;29904;51.058;5.378;2022-07-23T01:42:29;15.70;99.90
44229;DHT22;29904;51.058;5.378;2022-07-23T01:44:57;15.70;99.90
44229;DHT22;29904;51.058;5.378;2022-07-23T01:47:23;15.70;99.90
44229;DHT22;29904;51.058;5.378;2022-07-23T01:49:48;15.70;99.90
44229;DHT22;29904;51.058;5.378;2022-07-23T01:52:14;15.70;99.90
44229;DHT22;29904;51.058;5.378;2022-07-23T01:54:40;15.60;99.90
44229;DHT22;29904;51.058;5.378;2022-07-23T01:57:07;15.60;99.90
44229;DHT22;29904;51.058;5.378;2022-07-23T01:59:35;15.50;99.90
44229;DHT22;29904;51.058;5.378;2022-07-23T02:02:01;15.50;99.90
44229;DHT22;29904;51.058;5.378;2022-07-23T02:04:27;15.60;99.90
44229;DHT22;29904;51.058;5.378;2022-07-23T02:06:55;15.60;99.90
44229;DHT22;29904;51.058;5.378;2022-07-23T02:09:21;15.50;99.90
44229;DHT22;29904;51.058;5.378;2022-07-23T02:11:48;15.50;99.90
44229;DHT22;29904;51.058;5.378;2022-07-23T02:14:13;15.50;99.90
44229;DHT22;29904;51.058;5.378;2022-07-23T02:16:39;15.50;99.90
44229;DHT22;29904;51.058;5.378;2022-07-23T02:19:05;15.40;99.90
44229;DHT22;29904;51.058;5.378;2022-07-23T02:21:31;15.30;99.90
44229;DHT22;29904;51.058;5.378;2022-07-23T02:23:58;15.30;99.90
44229;DHT22;29904;51.058;5.378;2022-07-23T02:26:24;15.30;99.90
44229;DHT22;29904;51.058;5.378;2022-07-23T02:28:50;15.30;99.90
44229;DHT22;29904;51.058;5.378;2022-07-23T02:31:15;15.30;99.90
44229;DHT22;29904;51.058;5.378;2022-07-23T02:33:43;15.30;99.90
44229;DHT22;29904;51.058;5.378;2022-07-23T02:36:09;15.30;99.90
44229;DHT22;29904;51.058;5.378;2022-07-23T02:38:34;15.20;99.90
44229;DHT22;29904;51.058;5.378;2022-07-23T02:41:00;15.30;99.90
44229;DHT22;29904;51.058;5.378;2022-07-23T02:43:26;15.20;99.90
44229;DHT22;29904;51.058;5.378;2022-07-23T02:45:51;15.30;99.90
44229;DHT22;29904;51.058;5.378;2022-07-23T02:48:19;15.20;99.90
44229;DHT22;29904;51.058;5.378;2022-07-23T02:50:44;15.20;99.90
44229;DHT22;29904;51.058;5.378;2022-07-23T02:53:10;15.20;99.90
44229;DHT22;29904;51.058;5.378;2022-07-23T02:55:36;15.20;99.90
44229;DHT22;29904;51.058;5.378;2022-07-23T02:58:02;15.20;99.90
44229;DHT22;29904;51.058;5.378;2022-07-23T03:00:27;15.20;99.90
44229;DHT22;29904;51.058;5.378;2022-07-23T03:02:53;15.10;99.90
44229;DHT22;29904;51.058;5.378;2022-07-23T03:05:19;15.10;99.90
44229;DHT22;29904;51.058;5.378;2022-07-23T03:07:44;15.00;99.90
44229;DHT22;29904;51.058;5.378;2022-07-23T03:10:10;15.10;99.90
44229;DHT22;29904;51.058;5.378;2022-07-23T03:12:38;15.00;99.90
44229;DHT22;29904;51.058;5.378;2022-07-23T03:15:06;15.00;99.90
44229;DHT22;29904;51.058;5.378;2022-07-23T03:17:32;15.10;99.90
44229;DHT22;29904;51.058;5.378;2022-07-23T03:19:58;15.00;99.90
44229;DHT22;29904;51.058;5.378;2022-07-23T03:22:26;15.00;99.90
44229;DHT22;29904;51.058;5.378;2022-07-23T03:24:51;15.00;99.90
44229;DHT22;29904;51.058;5.378;2022-07-23T03:27:28;15.00;99.90
44229;DHT22;29904;51.058;5.378;2022-07-23T03:29:57;14.90;99.90
44229;DHT22;29904;51.058;5.378;2022-07-23T03:32:23;14.90;99.90
44229;DHT22;29904;51.058;5.378;2022-07-23T03:34:49;14.80;99.90
44229;DHT22;29904;51.058;5.378;2022-07-23T03:37:16;14.80;99.90
44229;DHT22;29904;51.058;5.378;2022-07-23T03:39:42;14.80;99.90
44229;DHT22;29904;51.058;5.378;2022-07-23T03:42:07;14.70;99.90
44229;DHT22;29904;51.058;5.378;2022-07-23T03:44:33;14.80;99.90
44229;DHT22;29904;51.058;5.378;2022-07-23T03:46:59;14.80;99.90
44229;DHT22;29904;51.058;5.378;2022-07-23T03:49:25;14.70;99.90
44229;DHT22;29904;51.058;5.378;2022-07-23T03:51:51;14.80;99.90
44229;DHT22;29904;51.058;5.378;2022-07-23T03:54:16;14.70;99.90
44229;DHT22;29904;51.058;5.378;2022-07-23T03:56:44;14.80;99.90
44229;DHT22;29904;51.058;5.378;2022-07-23T03:59:10;14.70;99.90
44229;DHT22;29904;51.058;5.378;2022-07-23T04:01:36;14.70;99.90
44229;DHT22;29904;51.058;5.378;2022-07-23T04:04:02;14.70;99.90
44229;DHT22;29904;51.058;5.378;2022-07-23T04:06:28;14.60;99.90
44229;DHT22;29904;51.058;5.378;2022-07-23T04:08:54;14.60;99.90
44229;DHT22;29904;51.058;5.378;2022-07-23T04:11:20;14.60;99.90
44229;DHT22;29904;51.058;5.378;2022-07-23T04:13:46;14.50;99.90
44229;DHT22;29904;51.058;5.378;2022-07-23T04:16:11;14.50;99.90
44229;DHT22;29904;51.058;5.378;2022-07-23T04:18:37;14.50;99.90
44229;DHT22;29904;51.058;5.378;2022-07-23T04:21:03;14.50;99.90
44229;DHT22;29904;51.058;5.378;2022-07-23T04:23:29;14.50;99.90
44229;DHT22;29904;51.058;5.378;2022-07-23T04:25:57;14.50;99.90
44229;DHT22;29904;51.058;5.378;2022-07-23T04:28:22;14.50;99.90
44229;DHT22;29904;51.058;5.378;2022-07-23T04:30:48;14.50;99.90
44229;DHT22;29904;51.058;5.378;2022-07-23T04:33:14;14.60;99.90
44229;DHT22;29904;51.058;5.378;2022-07-23T04:35:39;14.60;99.90
44229;DHT22;29904;51.058;5.378;2022-07-23T04:38:05;14.60;99.90
44229;DHT22;29904;51.058;5.378;2022-07-23T04:40:31;14.70;99.90
44229;DHT22;29904;51.058;5.378;2022-07-23T04:42:57;14.70;99.90
44229;DHT22;29904;51.058;5.378;2022-07-23T04:45:23;14.70;99.90
44229;DHT22;29904;51.058;5.378;2022-07-23T04:47:51;14.80;99.90
44229;DHT22;29904;51.058;5.378;2022-07-23T04:50:17;14.80;99.90
44229;DHT22;29904;51.058;5.378;2022-07-23T04:52:47;14.80;99.90
44229;DHT22;29904;51.058;5.378;2022-07-23T04:55:15;14.80;99.90
44229;DHT22;29904;51.058;5.378;2022-07-23T04:57:41;14.90;99.90
44229;DHT22;29904;51.058;5.378;2022-07-23T05:00:07;14.90;99.90
44229;DHT22;29904;51.058;5.378;2022-07-23T05:02:33;14.90;99.90
44229;DHT22;29904;51.058;5.378;2022-07-23T05:04:59;15.00;99.90
44229;DHT22;29904;51.058;5.378;2022-07-23T05:07:25;15.00;99.90
44229;DHT22;29904;51.058;5.378;2022-07-23T05:09:50;15.10;99.90
44229;DHT22;29904;51.058;5.378;2022-07-23T05:12:16;15.20;99.90
44229;DHT22;29904;51.058;5.378;2022-07-23T05:14:42;15.30;99.90
44229;DHT22;29904;51.058;5.378;2022-07-23T05:17:10;15.40;99.90
44229;DHT22;29904;51.058;5.378;2022-07-23T05:19:35;15.50;99.90
44229;DHT22;29904;51.058;5.378;2022-07-23T05:22:01;15.50;99.90
44229;DHT22;29904;51.058;5.378;2022-07-23T05:24:29;15.60;99.90
44229;DHT22;29904;51.058;5.378;2022-07-23T05:26:55;15.70;99.90
44229;DHT22;29904;51.058;5.378;2022-07-23T05:29:20;15.80;99.90
44229;DHT22;29904;51.058;5.378;2022-07-23T05:31:46;15.90;99.90
44229;DHT22;29904;51.058;5.378;2022-07-23T05:34:12;15.90;99.90
44229;DHT22;29904;51.058;5.378;2022-07-23T05:36:38;16.00;99.90
44229;DHT22;29904;51.058;5.378;2022-07-23T05:39:05;16.00;99.90
44229;DHT22;29904;51.058;5.378;2022-07-23T05:41:31;16.10;99.90
44229;DHT22;29904;51.058;5.378;2022-07-23T05:43:57;16.20;99.90
44229;DHT22;29904;51.058;5.378;2022-07-23T05:46:24;16.20;99.90
44229;DHT22;29904;51.058;5.378;2022-07-23T05:48:51;16.30;99.90
44229;DHT22;29904;51.058;5.378;2022-07-23T05:51:24;16.30;99.90
44229;DHT22;29904;51.058;5.378;2022-07-23T05:53:50;16.40;99.90
44229;DHT22;29904;51.058;5.378;2022-07-23T05:56:16;16.50;99.90
44229;DHT22;29904;51.058;5.378;2022-07-23T05:58:42;16.50;99.90
44229;DHT22;29904;51.058;5.378;2022-07-23T06:01:08;16.60;99.90
44229;DHT22;29904;51.058;5.378;2022-07-23T06:03:34;16.70;99.90
44229;DHT22;29904;51.058;5.378;2022-07-23T06:06:00;16.70;99.90
44229;DHT22;29904;51.058;5.378;2022-07-23T06:08:27;16.80;99.90
44229;DHT22;29904;51.058;5.378;2022-07-23T06:10:53;16.80;99.90
44229;DHT22;29904;51.058;5.378;2022-07-23T06:13:19;16.90;99.90
44229;DHT22;29904;51.058;5.378;2022-07-23T06:15:44;16.90;99.90
44229;DHT22;29904;51.058;5.378;2022-07-23T06:18:10;16.90;99.90
44229;DHT22;29904;51.058;5.378;2022-07-23T06:20:36;17.00;99.90
44229;DHT22;29904;51.058;5.378;2022-07-23T06:23:02;17.10;99.90
44229;DHT22;29904;51.058;5.378;2022-07-23T06:25:27;17.10;99.90
44229;DHT22;29904;51.058;5.378;2022-07-23T06:27:53;17.20;99.90
44229;DHT22;29904;51.058;5.378;2022-07-23T06:30:19;17.20;99.90
44229;DHT22;29904;51.058;5.378;2022-07-23T06:32:46;17.30;99.90
44229;DHT22;29904;51.058;5.378;2022-07-23T06:35:11;17.40;99.90
44229;DHT22;29904;51.058;5.378;2022-07-23T06:37:39;17.40;99.90
44229;DHT22;29904;51.058;5.378;2022-07-23T06:40:05;17.60;99.90
44229;DHT22;29904;51.058;5.378;2022-07-23T06:42:31;17.60;99.90
44229;DHT22;29904;51.058;5.378;2022-07-23T06:44:57;17.60;99.90
44229;DHT22;29904;51.058;5.378;2022-07-23T06:47:22;17.70;99.90
44229;DHT22;29904;51.058;5.378;2022-07-23T06:49:48;17.70;99.90
44229;DHT22;29904;51.058;5.378;2022-07-23T06:52:16;17.90;99.90
44229;DHT22;29904;51.058;5.378;2022-07-23T06:54:41;18.20;99.90
44229;DHT22;29904;51.058;5.378;2022-07-23T06:57:07;18.30;99.90
44229;DHT22;29904;51.058;5.378;2022-07-23T06:59:32;18.30;99.90
44229;DHT22;29904;51.058;5.378;2022-07-23T07:02:02;18.40;99.90
44229;DHT22;29904;51.058;5.378;2022-07-23T07:04:28;18.50;99.90
44229;DHT22;29904;51.058;5.378;2022-07-23T07:06:55;18.70;99.90
44229;DHT22;29904;51.058;5.378;2022-07-23T07:09:20;18.80;99.90
44229;DHT22;29904;51.058;5.378;2022-07-23T07:11:46;18.90;99.90
44229;DHT22;29904;51.058;5.378;2022-07-23T07:14:12;18.90;99.90
44229;DHT22;29904;51.058;5.378;2022-07-23T07:16:37;18.90;99.90
44229;DHT22;29904;51.058;5.378;2022-07-23T07:19:03;18.90;99.90
44229;DHT22;29904;51.058;5.378;2022-07-23T07:21:29;18.90;99.90
44229;DHT22;29904;51.058;5.378;2022-07-23T07:23:54;18.90;99.90
44229;DHT22;29904;51.058;5.378;2022-07-23T07:26:23;18.90;99.90
44229;DHT22;29904;51.058;5.378;2022-07-23T07:28:49;19.00;99.90
44229;DHT22;29904;51.058;5.378;2022-07-23T07:31:15;19.00;99.90
44229;DHT22;29904;51.058;5.378;2022-07-23T07:33:41;19.10;99.90
44229;DHT22;29904;51.058;5.378;2022-07-23T07:36:06;19.20;99.90
44229;DHT22;29904;51.058;5.378;2022-07-23T07:38:32;19.20;99.90
44229;DHT22;29904;51.058;5.378;2022-07-23T07:40:58;19.30;99.90
44229;DHT22;29904;51.058;5.378;2022-07-23T07:43:23;19.40;99.90
44229;DHT22;29904;51.058;5.378;2022-07-23T07:45:49;19.50;99.90
44229;DHT22;29904;51.058;5.378;2022-07-23T07:48:17;19.60;99.90
44229;DHT22;29904;51.058;5.378;2022-07-23T07:50:44;19.70;99.90
44229;DHT22;29904;51.058;5.378;2022-07-23T07:53:10;19.70;99.90
44229;DHT22;29904;51.058;5.378;2022-07-23T07:55:36;19.80;99.90
44229;DHT22;29904;51.058;5.378;2022-07-23T07:58:02;19.80;99.90
44229;DHT22;29904;51.058;5.378;2022-07-23T08:00:27;19.80;99.90
44229;DHT22;29904;51.058;5.378;2022-07-23T08:02:54;20.00;99.90
44229;DHT22;29904;51.058;5.378;2022-07-23T08:05:21;20.30;99.90
44229;DHT22;29904;51.058;5.378;2022-07-23T08:07:47;20.50;99.90
44229;DHT22;29904;51.058;5.378;2022-07-23T08:10:13;20.70;99.90
44229;DHT22;29904;51.058;5.378;2022-07-23T08:12:42;21.00;99.90
44229;DHT22;29904;51.058;5.378;2022-07-23T08:15:10;21.30;99.90
44229;DHT22;29904;51.058;5.378;2022-07-23T08:17:38;21.50;99.90
44229;DHT22;29904;51.058;5.378;2022-07-23T08:20:05;21.70;99.90
44229;DHT22;29904;51.058;5.378;2022-07-23T08:25:11;22.50;99.90
44229;DHT22;29904;51.058;5.378;2022-07-23T08:27:37;22.90;99.90
44229;DHT22;29904;51.058;5.378;2022-07-23T08:30:04;23.10;99.90
44229;DHT22;29904;51.058;5.378;2022-07-23T08:32:29;23.20;99.90
44229;DHT22;29904;51.058;5.378;2022-07-23T08:34:55;23.40;99.90
44229;DHT22;29904;51.058;5.378;2022-07-23T08:37:23;23.80;99.90
44229;DHT22;29904;51.058;5.378;2022-07-23T08:39:52;24.00;99.90
44229;DHT22;29904;51.058;5.378;2022-07-23T08:42:18;24.00;99.90
44229;DHT22;29904;51.058;5.378;2022-07-23T08:44:46;24.20;99.90
44229;DHT22;29904;51.058;5.378;2022-07-23T08:47:12;24.40;99.90
44229;DHT22;29904;51.058;5.378;2022-07-23T08:49:39;24.40;99.90
44229;DHT22;29904;51.058;5.378;2022-07-23T08:52:07;24.30;99.90
44229;DHT22;29904;51.058;5.378;2022-07-23T08:54:34;24.50;99.90
44229;DHT22;29904;51.058;5.378;2022-07-23T08:57:00;24.80;99.90
44229;DHT22;29904;51.058;5.378;2022-07-23T08:59:28;24.90;99.90
44229;DHT22;29904;51.058;5.378;2022-07-23T09:01:54;24.90;99.90
44229;DHT22;29904;51.058;5.378;2022-07-23T09:04:19;24.80;99.90
44229;DHT22;29904;51.058;5.378;2022-07-23T09:06:45;24.70;99.90
44229;DHT22;29904;51.058;5.378;2022-07-23T09:09:18;24.80;99.90
44229;DHT22;29904;51.058;5.378;2022-07-23T09:11:51;24.70;99.90
44229;DHT22;29904;51.058;5.378;2022-07-23T09:17:14;25.20;99.90
44229;DHT22;29904;51.058;5.378;2022-07-23T09:19:41;25.40;99.90
44229;DHT22;29904;51.058;5.378;2022-07-23T09:22:22;25.40;99.90
44229;DHT22;29904;51.058;5.378;2022-07-23T09:25:08;25.40;99.90
44229;DHT22;29904;51.058;5.378;2022-07-23T09:27:50;25.20;99.90
44229;DHT22;29904;51.058;5.378;2022-07-23T09:30:18;25.20;99.90
44229;DHT22;29904;51.058;5.378;2022-07-23T09:32:43;25.30;99.90
44229;DHT22;29904;51.058;5.378;2022-07-23T09:35:09;25.30;99.90
44229;DHT22;29904;51.058;5.378;2022-07-23T09:37:35;25.10;99.90
44229;DHT22;29904;51.058;5.378;2022-07-23T09:40:07;25.10;99.90
44229;DHT22;29904;51.058;5.378;2022-07-23T09:42:33;25.20;99.90
44229;DHT22;29904;51.058;5.378;2022-07-23T09:44:59;25.40;99.90
44229;DHT22;29904;51.058;5.378;2022-07-23T09:47:28;25.50;99.90
44229;DHT22;29904;51.058;5.378;2022-07-23T09:50:07;25.80;99.90
44229;DHT22;29904;51.058;5.378;2022-07-23T09:52:46;26.00;99.90
44229;DHT22;29904;51.058;5.378;2022-07-23T09:55:17;26.00;99.90
44229;DHT22;29904;51.058;5.378;2022-07-23T09:57:44;26.10;99.90
44229;DHT22;29904;51.058;5.378;2022-07-23T10:00:11;26.10;99.90
44229;DHT22;29904;51.058;5.378;2022-07-23T10:02:40;26.10;99.90
44229;DHT22;29904;51.058;5.378;2022-07-23T10:05:06;26.00;99.90
44229;DHT22;29904;51.058;5.378;2022-07-23T10:07:37;25.90;99.90
44229;DHT22;29904;51.058;5.378;2022-07-23T10:10:06;25.80;99.90
44229;DHT22;29904;51.058;5.378;2022-07-23T10:12:32;25.90;99.90
44229;DHT22;29904;51.058;5.378;2022-07-23T10:15:01;25.80;99.90
44229;DHT22;29904;51.058;5.378;2022-07-23T10:17:30;25.90;99.90
44229;DHT22;29904;51.058;5.378;2022-07-23T10:19:56;25.80;99.90
44229;DHT22;29904;51.058;5.378;2022-07-23T10:22:25;25.80;99.90
44229;DHT22;29904;51.058;5.378;2022-07-23T10:28:00;26.10;99.90
44229;DHT22;29904;51.058;5.378;2022-07-23T10:36:07;26.30;99.90
44229;DHT22;29904;51.058;5.378;2022-07-23T10:38:56;26.10;99.90
44229;DHT22;29904;51.058;5.378;2022-07-23T10:41:35;26.00;99.90
44229;DHT22;29904;51.058;5.378;2022-07-23T10:44:15;26.10;99.90
44229;DHT22;29904;51.058;5.378;2022-07-23T10:47:02;26.40;99.90
44229;DHT22;29904;51.058;5.378;2022-07-23T10:49:48;26.60;99.90
44229;DHT22;29904;51.058;5.378;2022-07-23T10:57:08;26.40;99.90
44229;DHT22;29904;51.058;5.378;2022-07-23T11:02:35;26.60;99.90
44229;DHT22;29904;51.058;5.378;2022-07-23T11:05:10;26.90;99.90
44229;DHT22;29904;51.058;5.378;2022-07-23T11:10:43;27.20;99.90
44229;DHT22;29904;51.058;5.378;2022-07-23T11:16:14;27.30;99.90
44229;DHT22;29904;51.058;5.378;2022-07-23T11:24:14;27.10;99.90
44229;DHT22;29904;51.058;5.378;2022-07-23T11:26:54;27.10;99.90
44229;DHT22;29904;51.058;5.378;2022-07-23T11:32:02;26.80;99.20
44229;DHT22;29904;51.058;5.378;2022-07-23T11:34:31;26.80;99.90
44229;DHT22;29904;51.058;5.378;2022-07-23T11:36:57;27.30;99.90
44229;DHT22;29904;51.058;5.378;2022-07-23T11:39:27;27.70;99.90
44229;DHT22;29904;51.058;5.378;2022-07-23T11:41:56;28.00;99.90
44229;DHT22;29904;51.058;5.378;2022-07-23T11:44:25;28.20;99.80
44229;DHT22;29904;51.058;5.378;2022-07-23T11:46:58;28.00;98.60
44229;DHT22;29904;51.058;5.378;2022-07-23T11:49:25;28.00;98.90
44229;DHT22;29904;51.058;5.378;2022-07-23T11:52:03;27.90;98.10
44229;DHT22;29904;51.058;5.378;2022-07-23T11:54:30;27.80;98.00
44229;DHT22;29904;51.058;5.378;2022-07-23T11:56:57;27.60;97.80
44229;DHT22;29904;51.058;5.378;2022-07-23T11:59:26;27.50;98.90
44229;DHT22;29904;51.058;5.378;2022-07-23T12:02:00;27.60;97.70
44229;DHT22;29904;51.058;5.378;2022-07-23T12:04:41;27.60;99.60
44229;DHT22;29904;51.058;5.378;2022-07-23T12:10:24;28.10;99.20
44229;DHT22;29904;51.058;5.378;2022-07-23T12:15:32;28.40;97.60
44229;DHT22;29904;51.058;5.378;2022-07-23T12:18:00;28.50;97.50
44229;DHT22;29904;51.058;5.378;2022-07-23T12:20:34;28.70;99.20
44229;DHT22;29904;51.058;5.378;2022-07-23T12:23:03;28.90;98.40
44229;DHT22;29904;51.058;5.378;2022-07-23T12:25:41;29.10;97.50
44229;DHT22;29904;51.058;5.378;2022-07-23T12:28:31;29.20;98.60
44229;DHT22;29904;51.058;5.378;2022-07-23T12:30:59;29.30;97.20
44229;DHT22;29904;51.058;5.378;2022-07-23T12:33:32;29.30;97.00
44229;DHT22;29904;51.058;5.378;2022-07-23T12:36:05;29.30;96.80
44229;DHT22;29904;51.058;5.378;2022-07-23T12:38:57;29.40;97.80
44229;DHT22;29904;51.058;5.378;2022-07-23T12:41:24;29.50;95.70
44229;DHT22;29904;51.058;5.378;2022-07-23T12:43:52;29.50;94.70
44229;DHT22;29904;51.058;5.378;2022-07-23T12:46:22;29.60;95.50
44229;DHT22;29904;51.058;5.378;2022-07-23T12:51:27;29.80;94.70
44229;DHT22;29904;51.058;5.378;2022-07-23T12:54:05;29.60;95.50
44229;DHT22;29904;51.058;5.378;2022-07-23T12:56:33;30.00;95.60
44229;DHT22;29904;51.058;5.378;2022-07-23T12:59:07;30.60;95.30
44229;DHT22;29904;51.058;5.378;2022-07-23T13:01:37;31.00;94.50
44229;DHT22;29904;51.058;5.378;2022-07-23T13:04:06;31.00;94.20
44229;DHT22;29904;51.058;5.378;2022-07-23T13:09:08;30.60;94.40
44229;DHT22;29904;51.058;5.378;2022-07-23T13:11:34;30.60;94.00
44229;DHT22;29904;51.058;5.378;2022-07-23T13:14:01;30.40;94.70
44229;DHT22;29904;51.058;5.378;2022-07-23T13:16:29;29.80;94.20
44229;DHT22;29904;51.058;5.378;2022-07-23T13:18:56;29.30;94.70
44229;DHT22;29904;51.058;5.378;2022-07-23T13:21:22;29.00;95.60
44229;DHT22;29904;51.058;5.378;2022-07-23T13:23:50;28.50;94.80
44229;DHT22;29904;51.058;5.378;2022-07-23T13:26:18;28.20;95.30
44229;DHT22;29904;51.058;5.378;2022-07-23T13:28:44;27.90;96.50
44229;DHT22;29904;51.058;5.378;2022-07-23T13:31:09;27.60;96.70
44229;DHT22;29904;51.058;5.378;2022-07-23T13:33:35;27.60;96.20
44229;DHT22;29904;51.058;5.378;2022-07-23T13:36:01;27.90;96.20
44229;DHT22;29904;51.058;5.378;2022-07-23T13:38:27;28.00;95.90
44229;DHT22;29904;51.058;5.378;2022-07-23T13:40:53;28.10;95.20
44229;DHT22;29904;51.058;5.378;2022-07-23T13:43:22;28.40;95.00
44229;DHT22;29904;51.058;5.378;2022-07-23T13:45:49;28.80;96.10
44229;DHT22;29904;51.058;5.378;2022-07-23T13:48:16;29.10;95.90
44229;DHT22;29904;51.058;5.378;2022-07-23T13:50:43;29.20;95.90
44229;DHT22;29904;51.058;5.378;2022-07-23T13:53:12;29.00;96.30
44229;DHT22;29904;51.058;5.378;2022-07-23T13:55:38;29.00;95.20
44229;DHT22;29904;51.058;5.378;2022-07-23T13:58:05;29.10;94.80
44229;DHT22;29904;51.058;5.378;2022-07-23T14:00:33;29.30;93.80
44229;DHT22;29904;51.058;5.378;2022-07-23T14:03:00;29.50;95.50
44229;DHT22;29904;51.058;5.378;2022-07-23T14:05:28;29.70;94.50
44229;DHT22;29904;51.058;5.378;2022-07-23T14:07:53;29.60;93.10
44229;DHT22;29904;51.058;5.378;2022-07-23T14:10:21;29.20;94.40
44229;DHT22;29904;51.058;5.378;2022-07-23T14:12:48;29.20;93.70
44229;DHT22;29904;51.058;5.378;2022-07-23T14:15:15;29.20;94.90
44229;DHT22;29904;51.058;5.378;2022-07-23T14:17:42;29.30;93.60
44229;DHT22;29904;51.058;5.378;2022-07-23T14:20:09;29.20;93.70
44229;DHT22;29904;51.058;5.378;2022-07-23T14:22:37;29.30;95.20
44229;DHT22;29904;51.058;5.378;2022-07-23T14:25:04;29.40;94.60
44229;DHT22;29904;51.058;5.378;2022-07-23T14:27:30;29.40;93.80
44229;DHT22;29904;51.058;5.378;2022-07-23T14:29:56;29.40;94.10
44229;DHT22;29904;51.058;5.378;2022-07-23T14:32:23;29.60;93.20
44229;DHT22;29904;51.058;5.378;2022-07-23T14:34:49;29.70;92.70
44229;DHT22;29904;51.058;5.378;2022-07-23T14:37:16;29.90;93.10
44229;DHT22;29904;51.058;5.378;2022-07-23T14:39:44;30.00;93.80
44229;DHT22;29904;51.058;5.378;2022-07-23T14:42:11;30.30;93.80
44229;DHT22;29904;51.058;5.378;2022-07-23T14:44:37;30.50;91.60
44229;DHT22;29904;51.058;5.378;2022-07-23T14:47:05;30.60;91.60
44229;DHT22;29904;51.058;5.378;2022-07-23T14:49:32;30.70;92.90
44229;DHT22;29904;51.058;5.378;2022-07-23T14:51:58;31.00;92.10
44229;DHT22;29904;51.058;5.378;2022-07-23T14:54:26;31.20;92.00
44229;DHT22;29904;51.058;5.378;2022-07-23T14:56:56;31.40;91.50
44229;DHT22;29904;51.058;5.378;2022-07-23T14:59:22;31.50;91.10
44229;DHT22;29904;51.058;5.378;2022-07-23T15:01:48;31.40;91.00
44229;DHT22;29904;51.058;5.378;2022-07-23T15:04:14;31.40;91.30
44229;DHT22;29904;51.058;5.378;2022-07-23T15:06:40;31.40;90.20
44229;DHT22;29904;51.058;5.378;2022-07-23T15:09:06;30.90;89.60
44229;DHT22;29904;51.058;5.378;2022-07-23T15:11:32;30.40;90.80
44229;DHT22;29904;51.058;5.378;2022-07-23T15:14:04;30.00;91.10
44229;DHT22;29904;51.058;5.378;2022-07-23T15:16:31;29.80;91.30
44229;DHT22;29904;51.058;5.378;2022-07-23T15:18:57;29.40;90.70
44229;DHT22;29904;51.058;5.378;2022-07-23T15:21:24;29.20;90.50
44229;DHT22;29904;51.058;5.378;2022-07-23T15:23:50;28.90;92.40
44229;DHT22;29904;51.058;5.378;2022-07-23T15:26:18;29.00;92.90
44229;DHT22;29904;51.058;5.378;2022-07-23T15:28:43;29.10;92.40
44229;DHT22;29904;51.058;5.378;2022-07-23T15:31:09;29.20;92.80
44229;DHT22;29904;51.058;5.378;2022-07-23T15:33:35;29.40;92.50
44229;DHT22;29904;51.058;5.378;2022-07-23T15:36:04;29.50;92.50
44229;DHT22;29904;51.058;5.378;2022-07-23T15:38:29;29.50;90.90
44229;DHT22;29904;51.058;5.378;2022-07-23T15:40:55;29.20;91.20
44229;DHT22;29904;51.058;5.378;2022-07-23T15:43:24;29.20;90.90
44229;DHT22;29904;51.058;5.378;2022-07-23T15:45:50;29.20;92.00
44229;DHT22;29904;51.058;5.378;2022-07-23T15:48:18;29.30;92.80
44229;DHT22;29904;51.058;5.378;2022-07-23T15:50:47;29.10;91.20
44229;DHT22;29904;51.058;5.378;2022-07-23T15:53:15;29.00;91.90
44229;DHT22;29904;51.058;5.378;2022-07-23T15:55:41;29.00;93.80
44229;DHT22;29904;51.058;5.378;2022-07-23T15:58:10;29.20;92.10
44229;DHT22;29904;51.058;5.378;2022-07-23T16:00:37;29.30;91.90
44229;DHT22;29904;51.058;5.378;2022-07-23T16:03:03;29.30;90.60
44229;DHT22;29904;51.058;5.378;2022-07-23T16:05:28;29.20;91.50
44229;DHT22;29904;51.058;5.378;2022-07-23T16:07:54;29.10;92.20
44229;DHT22;29904;51.058;5.378;2022-07-23T16:10:20;29.00;92.10
44229;DHT22;29904;51.058;5.378;2022-07-23T16:12:47;29.00;92.10
44229;DHT22;29904;51.058;5.378;2022-07-23T16:15:12;29.10;91.70
44229;DHT22;29904;51.058;5.378;2022-07-23T16:17:40;29.10;92.10
44229;DHT22;29904;51.058;5.378;2022-07-23T16:20:06;29.30;91.40